Time;durP1;ratioP1;P1;durP2;ratioP2;P2;SDS_P1;SDS_P2;PMS_P1;PMS_P2;Temp;Humidity;BMP_temperature;BMP_pressure;BME280_temperature;BME280_humidity;BME280_pressure;Samples;Min_cycle;Max_cycle;Signal;HPM_P1;HPM_P2
2023/07/15 00:01:23;;;;;;;6.70;6.20;;;21.70;99.90;;;;;;5060722;28;20165;-46
2023/07/15 00:03:57;;;;;;;8.00;7.30;;;21.70;99.90;;;;;;5078655;28;20226;-44
2023/07/15 00:06:24;;;;;;;8.63;6.83;;;21.70;99.90;;;;;;5061314;28;20196;-44
2023/07/15 00:08:51;;;;;;;7.60;6.90;;;21.70;99.90;;;;;;5077951;28;20153;-46
2023/07/15 00:11:20;;;;;;;7.63;6.80;;;21.60;99.90;;;;;;5060972;28;20268;-48
2023/07/15 00:13:45;;;;;;;6.80;6.27;;;21.60;99.90;;;;;;5061791;28;20168;-45
2023/07/15 00:16:11;;;;;;;8.00;7.20;;;21.60;99.90;;;;;;5065299;28;20178;-46
2023/07/15 00:18:41;;;;;;;8.07;7.37;;;21.60;99.90;;;;;;5041461;28;20166;-46
2023/07/15 00:21:20;;;;;;;7.00;6.50;;;21.50;99.90;;;;;;5059180;28;20262;-44
2023/07/15 00:23:48;;;;;;;7.50;6.73;;;21.50;99.90;;;;;;5042022;28;20170;-46
2023/07/15 00:26:14;;;;;;;8.67;7.70;;;21.60;99.90;;;;;;5047004;28;20158;-44
2023/07/15 00:28:39;;;;;;;8.67;7.90;;;21.50;99.90;;;;;;5061619;28;20322;-44
2023/07/15 00:31:12;;;;;;;8.77;8.13;;;21.50;99.90;;;;;;5094922;28;20240;-45
2023/07/15 00:33:38;;;;;;;8.43;7.73;;;21.50;99.90;;;;;;5081885;28;20164;-46
2023/07/15 00:36:05;;;;;;;8.50;7.80;;;21.50;99.90;;;;;;5099018;28;20191;-47
2023/07/15 00:38:30;;;;;;;8.23;7.53;;;21.50;99.90;;;;;;5099452;28;20183;-46
2023/07/15 00:40:56;;;;;;;9.13;8.33;;;21.50;99.90;;;;;;5081350;28;20212;-43
2023/07/15 00:43:59;;;;;;;8.20;7.60;;;21.50;99.90;;;;;;5081267;28;20207;-44
2023/07/15 00:46:56;;;;;;;7.70;7.10;;;21.50;99.90;;;;;;5061539;28;20345;-48
2023/07/15 00:49:33;;;;;;;7.10;6.50;;;21.50;99.90;;;;;;5078332;28;20241;-48
2023/07/15 00:52:13;;;;;;;7.57;6.10;;;21.40;99.90;;;;;;5061252;28;20257;-45
2023/07/15 00:54:41;;;;;;;6.67;6.07;;;21.40;99.90;;;;;;5062034;28;20718;-44
2023/07/15 00:57:09;;;;;;;6.30;5.83;;;21.40;99.90;;;;;;5061750;28;20180;-45
2023/07/15 00:59:36;;;;;;;6.80;6.30;;;21.30;99.90;;;;;;5061419;28;20208;-44
2023/07/15 01:02:02;;;;;;;6.50;6.10;;;21.30;99.90;;;;;;5086026;28;20477;-46
2023/07/15 01:04:28;;;;;;;7.07;6.57;;;21.30;99.90;;;;;;5061546;28;20183;-44
2023/07/15 01:06:54;;;;;;;6.40;5.63;;;21.20;99.90;;;;;;5094734;28;20168;-46
2023/07/15 01:09:21;;;;;;;6.70;6.10;;;21.20;99.90;;;;;;5061596;28;20172;-46
2023/07/15 01:11:46;;;;;;;6.27;5.67;;;21.20;99.90;;;;;;5078586;28;20473;-44
2023/07/15 01:14:13;;;;;;;6.30;5.80;;;21.20;99.90;;;;;;5073080;28;20580;-45
2023/07/15 01:16:42;;;;;;;5.77;5.27;;;21.20;99.90;;;;;;5077822;28;20168;-45
2023/07/15 01:19:09;;;;;;;5.40;4.90;;;21.20;99.90;;;;;;5093689;28;20196;-44
2023/07/15 01:21:36;;;;;;;5.57;5.00;;;21.20;99.90;;;;;;5093906;28;20553;-44
2023/07/15 01:24:03;;;;;;;4.80;4.40;;;21.10;99.90;;;;;;5072807;28;20164;-47
2023/07/15 01:26:29;;;;;;;5.10;4.70;;;21.10;99.90;;;;;;5062028;28;20180;-44
2023/07/15 01:28:55;;;;;;;4.90;4.40;;;21.10;99.90;;;;;;5079794;28;20176;-43
2023/07/15 01:31:22;;;;;;;5.27;4.40;;;21.10;99.90;;;;;;5062087;28;20220;-47
2023/07/15 01:33:47;;;;;;;5.93;5.17;;;21.10;99.90;;;;;;5060068;28;20200;-44
2023/07/15 01:36:13;;;;;;;6.07;4.30;;;21.10;99.90;;;;;;5058846;28;20176;-45
2023/07/15 01:38:40;;;;;;;6.10;5.60;;;21.10;99.90;;;;;;5077678;28;20160;-46
2023/07/15 01:41:06;;;;;;;5.40;4.83;;;21.10;99.90;;;;;;5060232;28;20173;-46
2023/07/15 01:43:32;;;;;;;4.83;4.30;;;21.10;99.90;;;;;;5078056;28;20176;-47
2023/07/15 01:45:58;;;;;;;4.80;4.30;;;21.10;99.90;;;;;;5056396;28;20169;-46
2023/07/15 01:48:25;;;;;;;5.70;4.03;;;21.00;99.90;;;;;;5060892;28;20176;-49
2023/07/15 01:50:51;;;;;;;6.00;4.33;;;21.00;99.90;;;;;;5059825;28;20179;-43
2023/07/15 01:53:17;;;;;;;6.53;4.20;;;21.00;99.90;;;;;;5077121;28;20160;-46
2023/07/15 01:55:58;;;;;;;5.83;4.40;;;21.00;99.90;;;;;;5076759;28;20172;-44
2023/07/15 01:58:24;;;;;;;9.77;4.67;;;20.90;99.90;;;;;;5059439;28;20458;-44
2023/07/15 02:00:49;;;;;;;5.90;4.40;;;20.90;99.90;;;;;;5059890;28;20600;-46
2023/07/15 02:03:15;;;;;;;4.47;4.00;;;20.90;99.90;;;;;;5059882;28;20171;-46
2023/07/15 02:05:41;;;;;;;4.13;3.73;;;20.80;99.90;;;;;;5044816;28;20643;-46
2023/07/15 02:08:07;;;;;;;5.57;3.80;;;20.80;99.90;;;;;;5039651;28;20208;-44
2023/07/15 02:10:33;;;;;;;4.07;3.67;;;20.80;99.90;;;;;;5057040;28;20208;-44
2023/07/15 02:12:58;;;;;;;7.77;4.10;;;20.70;99.90;;;;;;5040404;28;20204;-44
2023/07/15 02:15:24;;;;;;;6.33;4.30;;;20.70;99.90;;;;;;5051241;28;20188;-50
2023/07/15 02:17:50;;;;;;;4.80;4.37;;;20.70;99.90;;;;;;5076024;28;20228;-43
2023/07/15 02:20:15;;;;;;;4.07;3.77;;;20.70;99.90;;;;;;5058994;28;20299;-45
2023/07/15 02:22:42;;;;;;;4.33;3.93;;;20.60;99.90;;;;;;5058619;28;20169;-44
2023/07/15 02:25:08;;;;;;;4.57;4.17;;;20.60;99.90;;;;;;5048660;28;20169;-43
2023/07/15 02:27:34;;;;;;;5.03;4.33;;;20.60;99.90;;;;;;5055966;28;20158;-47
2023/07/15 02:29:59;;;;;;;4.37;3.93;;;20.60;99.90;;;;;;5044479;28;20712;-43
2023/07/15 02:32:39;;;;;;;3.83;3.53;;;20.60;99.90;;;;;;5058402;28;20195;-47
2023/07/15 02:35:10;;;;;;;4.87;4.03;;;20.60;99.90;;;;;;5059243;28;20207;-45
2023/07/15 02:37:37;;;;;;;4.40;4.00;;;20.50;99.90;;;;;;5059808;28;20636;-47
2023/07/15 02:40:04;;;;;;;4.70;4.07;;;20.50;99.90;;;;;;5059698;28;20196;-44
2023/07/15 02:42:33;;;;;;;4.47;3.53;;;20.50;99.90;;;;;;5059739;28;20168;-45
2023/07/15 02:45:00;;;;;;;6.00;4.10;;;20.50;99.90;;;;;;5070743;28;20432;-48
2023/07/15 02:47:25;;;;;;;4.80;3.40;;;20.40;99.90;;;;;;5079480;28;20221;-47
2023/07/15 02:49:51;;;;;;;5.63;3.87;;;20.40;99.90;;;;;;5079702;28;20172;-46
2023/07/15 02:52:17;;;;;;;5.77;3.80;;;20.40;99.90;;;;;;5094784;28;20191;-43
2023/07/15 02:54:42;;;;;;;4.00;3.37;;;20.40;99.90;;;;;;5077346;28;20168;-44
2023/07/15 02:57:08;;;;;;;4.80;4.10;;;20.30;99.90;;;;;;5059693;28;20537;-44
2023/07/15 02:59:34;;;;;;;4.30;3.70;;;20.40;99.90;;;;;;5091606;28;20283;-44
2023/07/15 03:02:19;;;;;;;6.27;4.10;;;20.40;99.90;;;;;;5077708;28;20552;-50
2023/07/15 03:04:45;;;;;;;4.27;3.80;;;20.40;99.90;;;;;;5080667;28;20164;-44
2023/07/15 03:07:12;;;;;;;5.73;3.53;;;20.40;99.90;;;;;;5082849;28;20179;-46
2023/07/15 03:09:38;;;;;;;4.00;3.60;;;20.40;99.90;;;;;;5082668;28;20168;-46
2023/07/15 03:12:04;;;;;;;4.60;3.53;;;20.40;99.90;;;;;;5082521;28;20504;-49
2023/07/15 03:14:29;;;;;;;4.97;3.30;;;20.40;99.90;;;;;;5076012;28;20230;-44
2023/07/15 03:16:55;;;;;;;5.63;3.87;;;20.40;99.90;;;;;;5080058;28;20336;-44
2023/07/15 03:19:20;;;;;;;3.37;3.07;;;20.40;99.90;;;;;;5098861;28;20249;-44
2023/07/15 03:21:46;;;;;;;4.87;3.50;;;20.40;99.90;;;;;;5067270;28;20180;-44
2023/07/15 03:24:12;;;;;;;5.03;3.13;;;20.40;99.90;;;;;;5083391;28;20586;-44
2023/07/15 03:26:38;;;;;;;4.33;3.40;;;20.40;99.90;;;;;;5099927;28;20160;-47
2023/07/15 03:29:08;;;;;;;4.80;3.30;;;20.40;99.90;;;;;;5100583;28;20597;-43
2023/07/15 03:31:35;;;;;;;4.03;3.40;;;20.50;99.90;;;;;;5062694;28;20225;-46
2023/07/15 03:34:01;;;;;;;4.03;3.20;;;20.50;99.90;;;;;;5061000;28;20169;-43
2023/07/15 03:36:27;;;;;;;3.93;3.53;;;20.50;99.90;;;;;;5050144;28;20774;-44
2023/07/15 03:38:52;;;;;;;3.47;3.17;;;20.60;99.90;;;;;;5059421;28;20169;-44
2023/07/15 03:41:18;;;;;;;4.37;3.97;;;20.60;99.90;;;;;;5042653;28;20447;-49
2023/07/15 03:43:44;;;;;;;5.83;3.57;;;20.60;99.90;;;;;;5044448;28;20573;-44
2023/07/15 03:46:09;;;;;;;7.40;3.93;;;20.60;99.90;;;;;;5063046;28;20169;-44
2023/07/15 03:48:35;;;;;;;5.47;3.87;;;20.60;99.90;;;;;;5075675;28;20174;-45
2023/07/15 03:51:02;;;;;;;4.13;3.83;;;20.60;99.90;;;;;;5042238;28;20179;-44
2023/07/15 03:53:28;;;;;;;6.03;4.10;;;20.70;99.90;;;;;;5050636;28;20173;-44
2023/07/15 03:55:53;;;;;;;4.57;3.93;;;20.60;99.90;;;;;;5079390;28;20177;-45
2023/07/15 03:58:19;;;;;;;4.63;4.23;;;20.70;99.90;;;;;;5079729;28;20172;-44
2023/07/15 04:00:44;;;;;;;4.23;3.83;;;20.70;99.90;;;;;;5062975;28;20232;-44
2023/07/15 04:03:10;;;;;;;5.17;4.07;;;20.70;99.90;;;;;;5080711;28;20169;-45
2023/07/15 04:05:35;;;;;;;6.17;4.93;;;20.80;99.90;;;;;;5058967;28;20184;-43
2023/07/15 04:08:01;;;;;;;9.47;5.30;;;20.70;99.90;;;;;;5043085;28;20525;-46
2023/07/15 04:10:45;;;;;;;5.23;4.77;;;20.70;99.90;;;;;;5042617;28;20169;-46
2023/07/15 04:13:11;;;;;;;5.50;5.00;;;20.70;99.90;;;;;;5041637;28;20180;-46
2023/07/15 04:15:38;;;;;;;7.93;4.50;;;20.70;99.90;;;;;;5041621;28;20166;-44
2023/07/15 04:18:03;;;;;;;4.90;4.50;;;20.70;99.90;;;;;;5057118;28;20244;-43
2023/07/15 04:20:29;;;;;;;6.10;4.90;;;20.70;99.90;;;;;;5061113;28;20212;-49
2023/07/15 04:22:55;;;;;;;5.70;5.23;;;20.70;99.90;;;;;;5077676;28;20480;-44
2023/07/15 04:25:20;;;;;;;6.07;5.57;;;20.70;99.90;;;;;;5075436;28;20201;-45
2023/07/15 04:27:46;;;;;;;5.83;4.63;;;20.70;99.90;;;;;;5075588;28;20169;-46
2023/07/15 04:30:12;;;;;;;5.53;5.13;;;20.70;99.90;;;;;;5066192;28;20263;-48
2023/07/15 04:32:38;;;;;;;7.60;5.10;;;20.60;99.90;;;;;;5078047;28;20546;-46
2023/07/15 04:35:04;;;;;;;7.67;4.53;;;20.60;99.90;;;;;;5095622;28;20164;-44
2023/07/15 04:37:30;;;;;;;5.97;5.37;;;20.60;99.90;;;;;;5078685;28;20328;-44
2023/07/15 04:39:55;;;;;;;5.93;5.43;;;20.60;99.90;;;;;;5099259;28;20192;-46
2023/07/15 04:42:21;;;;;;;7.30;5.80;;;20.60;99.90;;;;;;5082141;28;20176;-46
2023/07/15 04:44:48;;;;;;;5.43;4.93;;;20.60;99.90;;;;;;5082073;28;20176;-48
2023/07/15 04:47:14;;;;;;;6.27;5.40;;;20.60;99.90;;;;;;5082513;28;20559;-46
2023/07/15 04:49:40;;;;;;;6.77;6.17;;;20.60;99.90;;;;;;5082015;28;20258;-44
2023/07/15 04:52:07;;;;;;;6.07;5.57;;;20.60;99.90;;;;;;5081032;28;20529;-43
2023/07/15 04:54:32;;;;;;;6.57;5.43;;;20.60;99.90;;;;;;5075307;28;20176;-44
2023/07/15 04:56:58;;;;;;;7.60;5.37;;;20.60;99.90;;;;;;5061048;28;20255;-51
2023/07/15 04:59:25;;;;;;;6.60;6.00;;;20.70;99.90;;;;;;5078691;28;20548;-44
2023/07/15 05:01:52;;;;;;;5.80;4.40;;;20.60;99.90;;;;;;5060421;28;20165;-45
2023/07/15 05:04:17;;;;;;;5.63;5.13;;;20.60;99.90;;;;;;5061119;28;20161;-44
2023/07/15 05:06:46;;;;;;;6.57;4.37;;;20.60;99.90;;;;;;5089166;28;20279;-44
2023/07/15 05:09:11;;;;;;;5.37;4.97;;;20.60;99.90;;;;;;5097939;28;20226;-44
2023/07/15 05:11:44;;;;;;;5.70;5.20;;;20.60;99.90;;;;;;5078894;28;20168;-44
2023/07/15 05:14:11;;;;;;;4.63;4.23;;;20.60;99.90;;;;;;5080478;28;20175;-44
2023/07/15 05:16:42;;;;;;;5.13;4.70;;;20.60;99.90;;;;;;5080780;28;20171;-47
2023/07/15 05:19:08;;;;;;;6.97;5.37;;;20.60;99.90;;;;;;5060646;28;20478;-45
2023/07/15 05:21:35;;;;;;;6.50;5.10;;;20.60;99.90;;;;;;5061429;28;20549;-43
2023/07/15 05:24:00;;;;;;;5.67;5.27;;;20.60;99.90;;;;;;5098030;28;20145;-45
2023/07/15 05:26:26;;;;;;;6.63;5.83;;;20.60;99.90;;;;;;5077648;28;20168;-44
2023/07/15 05:28:55;;;;;;;5.53;4.93;;;20.60;99.90;;;;;;5060001;28;20712;-47
2023/07/15 05:31:21;;;;;;;6.63;5.90;;;20.70;99.90;;;;;;5060882;28;20233;-46
2023/07/15 05:33:55;;;;;;;5.87;5.27;;;20.70;99.90;;;;;;5072160;28;20187;-44
2023/07/15 05:36:22;;;;;;;7.23;5.67;;;20.70;99.90;;;;;;5097976;28;20176;-44
2023/07/15 05:38:47;;;;;;;7.13;5.70;;;20.80;99.90;;;;;;5079707;28;20175;-46
2023/07/15 05:41:14;;;;;;;6.57;5.57;;;20.80;99.90;;;;;;5078216;28;20204;-45
2023/07/15 05:43:39;;;;;;;8.07;6.23;;;20.90;99.90;;;;;;5073126;28;20164;-43
2023/07/15 05:46:05;;;;;;;7.83;5.10;;;20.80;99.90;;;;;;5078750;28;20187;-45
2023/07/15 05:48:31;;;;;;;5.80;5.30;;;20.90;99.90;;;;;;5067405;28;20203;-44
2023/07/15 05:50:56;;;;;;;5.70;5.20;;;20.90;99.90;;;;;;5070655;28;20237;-47
2023/07/15 05:53:22;;;;;;;5.37;4.97;;;20.90;99.90;;;;;;5064194;28;20180;-44
2023/07/15 05:55:49;;;;;;;6.03;5.50;;;21.00;99.90;;;;;;5076602;28;20164;-46
2023/07/15 05:58:15;;;;;;;6.20;5.40;;;21.00;99.90;;;;;;5077173;28;20566;-44
2023/07/15 06:00:42;;;;;;;6.03;5.60;;;21.00;99.90;;;;;;5078470;28;20199;-48
2023/07/15 06:03:09;;;;;;;9.83;6.80;;;21.00;99.90;;;;;;5078630;28;20168;-48
2023/07/15 06:05:35;;;;;;;6.73;6.23;;;21.00;99.90;;;;;;5095363;28;20188;-45
2023/07/15 06:08:01;;;;;;;6.80;6.30;;;21.00;99.90;;;;;;5076727;28;20191;-45
2023/07/15 06:10:28;;;;;;;7.30;6.80;;;21.00;99.90;;;;;;5077541;28;20172;-49
2023/07/15 06:12:54;;;;;;;7.00;6.40;;;21.00;99.90;;;;;;5072696;28;20250;-45
2023/07/15 06:15:21;;;;;;;7.83;7.13;;;21.10;99.90;;;;;;5091573;28;20278;-47
2023/07/15 06:18:02;;;;;;;6.97;6.47;;;21.10;99.90;;;;;;5096105;28;20218;-47
2023/07/15 06:20:29;;;;;;;7.50;6.40;;;21.10;99.90;;;;;;5077246;28;20210;-46
2023/07/15 06:22:55;;;;;;;6.83;6.03;;;21.20;99.90;;;;;;5095394;28;20237;-45
2023/07/15 06:25:20;;;;;;;6.80;6.13;;;21.20;99.90;;;;;;5075078;28;20172;-44
2023/07/15 06:27:46;;;;;;;6.90;6.47;;;21.20;99.90;;;;;;5067394;28;20183;-46
2023/07/15 06:30:12;;;;;;;7.93;7.13;;;21.30;99.90;;;;;;5056835;28;20220;-46
2023/07/15 06:32:39;;;;;;;7.17;6.57;;;21.30;99.90;;;;;;5056707;28;20234;-46
2023/07/15 06:35:04;;;;;;;7.00;6.40;;;21.40;99.90;;;;;;5074851;28;20188;-44
2023/07/15 06:37:30;;;;;;;7.07;6.47;;;21.40;99.90;;;;;;5057383;28;20164;-44
2023/07/15 06:39:55;;;;;;;7.47;6.30;;;21.40;99.90;;;;;;5057621;28;20319;-45
2023/07/15 06:42:21;;;;;;;9.10;6.60;;;21.40;99.90;;;;;;5075208;28;20647;-44
2023/07/15 06:44:48;;;;;;;7.87;7.33;;;21.50;99.90;;;;;;5088587;28;20580;-44
2023/07/15 06:47:15;;;;;;;8.33;5.97;;;21.60;99.90;;;;;;5056872;28;20176;-44
2023/07/15 06:49:42;;;;;;;8.07;7.10;;;21.60;99.90;;;;;;5057022;28;20168;-44
2023/07/15 06:52:08;;;;;;;7.20;6.70;;;21.60;99.90;;;;;;5057799;28;20179;-47
2023/07/15 06:54:35;;;;;;;9.30;8.30;;;21.70;99.90;;;;;;5060856;28;20225;-46
2023/07/15 06:57:00;;;;;;;6.30;5.60;;;21.70;99.90;;;;;;5077302;28;20233;-45
2023/07/15 06:59:27;;;;;;;8.33;7.30;;;21.70;99.90;;;;;;5076705;28;20204;-46
2023/07/15 07:01:52;;;;;;;7.07;6.47;;;21.80;99.90;;;;;;5075881;28;20679;-45
2023/07/15 07:04:18;;;;;;;6.50;6.00;;;21.80;99.90;;;;;;5060516;28;20172;-44
2023/07/15 07:06:45;;;;;;;6.80;6.30;;;21.90;99.90;;;;;;5078209;28;20176;-47
2023/07/15 07:09:13;;;;;;;8.77;6.37;;;22.00;99.90;;;;;;5078794;28;20551;-46
2023/07/15 07:11:40;;;;;;;7.60;6.90;;;22.00;99.90;;;;;;5079157;28;20275;-44
2023/07/15 07:14:08;;;;;;;8.00;7.20;;;22.10;99.90;;;;;;5079010;28;20229;-44
2023/07/15 07:16:33;;;;;;;9.13;6.93;;;22.20;99.90;;;;;;5096305;28;20168;-44
2023/07/15 07:19:00;;;;;;;8.37;7.70;;;22.20;99.90;;;;;;5095616;28;20440;-44
2023/07/15 07:21:27;;;;;;;8.50;7.80;;;22.20;99.90;;;;;;5077612;28;20168;-44
2023/07/15 07:23:55;;;;;;;9.67;8.77;;;22.20;99.90;;;;;;5076474;28;20547;-44
2023/07/15 07:26:22;;;;;;;8.77;8.07;;;22.20;99.90;;;;;;5057975;28;20175;-43
2023/07/15 07:28:48;;;;;;;7.83;7.13;;;22.30;99.90;;;;;;5067752;28;20272;-44
2023/07/15 07:31:16;;;;;;;8.40;7.80;;;22.30;99.90;;;;;;5060207;28;20619;-44
2023/07/15 07:33:43;;;;;;;8.83;8.13;;;22.40;99.90;;;;;;5057453;28;20647;-46
2023/07/15 07:36:09;;;;;;;8.40;7.80;;;22.40;99.90;;;;;;5041332;28;20181;-44
2023/07/15 07:38:35;;;;;;;8.63;8.03;;;22.40;99.90;;;;;;5037993;28;20175;-44
2023/07/15 07:41:18;;;;;;;7.50;6.87;;;22.50;99.90;;;;;;5037254;28;20201;-50
2023/07/15 07:43:45;;;;;;;9.90;7.23;;;22.70;99.90;;;;;;5044632;28;20177;-44
2023/07/15 07:46:11;;;;;;;7.87;7.27;;;22.80;99.90;;;;;;5041493;28;20552;-49
2023/07/15 07:48:37;;;;;;;8.10;7.40;;;22.90;99.90;;;;;;5038371;28;20184;-47
2023/07/15 07:51:04;;;;;;;9.37;7.10;;;22.80;99.90;;;;;;5058998;28;20532;-46
2023/07/15 07:53:29;;;;;;;8.07;7.47;;;22.90;99.90;;;;;;5041590;28;20200;-44
2023/07/15 07:55:57;;;;;;;8.20;7.50;;;23.00;99.90;;;;;;5042534;28;20548;-44
2023/07/15 07:58:23;;;;;;;8.27;7.47;;;23.10;99.90;;;;;;5041366;28;20185;-50
2023/07/15 08:00:50;;;;;;;8.20;7.67;;;23.20;99.90;;;;;;5040127;28;20215;-44
2023/07/15 08:03:16;;;;;;;7.77;7.27;;;23.30;99.90;;;;;;5057320;28;20500;-47
2023/07/15 08:05:43;;;;;;;8.67;7.87;;;23.30;99.90;;;;;;5050601;28;20211;-46
2023/07/15 08:08:11;;;;;;;10.33;9.40;;;23.30;99.90;;;;;;5076816;28;20169;-44
2023/07/15 08:10:38;;;;;;;9.40;8.57;;;23.40;99.90;;;;;;5059441;28;20173;-44
2023/07/15 08:13:05;;;;;;;11.23;10.33;;;23.60;99.90;;;;;;5074451;28;20181;-44
2023/07/15 08:15:35;;;;;;;11.40;10.47;;;23.60;99.90;;;;;;5062748;28;20177;-44
2023/07/15 08:18:02;;;;;;;13.73;12.83;;;23.60;99.90;;;;;;5056102;28;20541;-44
2023/07/15 08:20:29;;;;;;;14.03;12.93;;;23.70;99.90;;;;;;5037796;28;20205;-46
2023/07/15 08:22:57;;;;;;;14.20;13.33;;;23.70;99.90;;;;;;5054976;28;20161;-44
2023/07/15 08:25:24;;;;;;;16.60;15.40;;;23.70;99.90;;;;;;5047760;28;20191;-44
2023/07/15 08:27:51;;;;;;;18.43;17.10;;;23.70;99.90;;;;;;5058993;28;20180;-46
2023/07/15 08:30:18;;;;;;;15.13;14.23;;;23.80;99.90;;;;;;5055413;28;20370;-45
2023/07/15 08:32:44;;;;;;;17.30;16.37;;;23.80;99.90;;;;;;5054716;28;20173;-44
2023/07/15 08:35:10;;;;;;;19.73;18.57;;;23.80;99.90;;;;;;5045189;28;20184;-46
2023/07/15 08:37:35;;;;;;;17.83;16.73;;;23.80;99.90;;;;;;5057899;28;20184;-45
2023/07/15 08:40:03;;;;;;;20.80;19.60;;;23.90;99.90;;;;;;5057470;28;20208;-44
2023/07/15 08:42:34;;;;;;;21.77;20.37;;;24.10;99.90;;;;;;5057937;28;20222;-44
2023/07/15 08:45:02;;;;;;;21.83;20.60;;;24.30;99.90;;;;;;5042019;28;20173;-44
2023/07/15 08:47:28;;;;;;;20.53;19.37;;;24.40;99.90;;;;;;5037355;28;20268;-46
2023/07/15 08:49:59;;;;;;;23.83;22.37;;;24.50;99.90;;;;;;5037203;28;20284;-44
2023/07/15 08:52:25;;;;;;;25.07;23.70;;;24.70;99.90;;;;;;5037721;28;20561;-44
2023/07/15 08:54:53;;;;;;;13.87;13.07;;;24.70;99.90;;;;;;5037078;28;20177;-47
2023/07/15 08:57:22;;;;;;;14.43;13.43;;;24.80;99.90;;;;;;5053468;28;20184;-44
2023/07/15 08:59:56;;;;;;;15.93;14.73;;;24.80;99.90;;;;;;5035572;28;20197;-44
2023/07/15 09:02:23;;;;;;;11.37;10.50;;;24.70;99.90;;;;;;5034766;28;20173;-45
2023/07/15 09:04:48;;;;;;;14.10;13.03;;;24.80;99.90;;;;;;5039890;28;20173;-44
2023/07/15 09:07:14;;;;;;;15.07;14.17;;;24.80;99.90;;;;;;5055227;28;20172;-44
2023/07/15 09:09:41;;;;;;;15.93;14.87;;;24.80;99.90;;;;;;5045528;28;20268;-47
2023/07/15 09:12:09;;;;;;;12.60;11.80;;;24.90;99.90;;;;;;5035827;28;20479;-46
2023/07/15 09:14:45;;;;;;;13.37;12.57;;;24.80;99.90;;;;;;5037979;28;20222;-46
2023/07/15 09:17:19;;;;;;;16.23;15.23;;;24.80;99.90;;;;;;5057019;28;20275;-44
2023/07/15 09:19:46;;;;;;;18.83;17.37;;;24.80;99.90;;;;;;5073802;28;20248;-44
2023/07/15 09:22:12;;;;;;;20.55;19.42;;;24.70;99.90;;;;;;5055865;28;20179;-45
2023/07/15 09:24:39;;;;;;;16.83;15.77;;;24.70;99.90;;;;;;5052195;28;20174;-43
2023/07/15 09:27:06;;;;;;;19.40;18.40;;;24.80;99.90;;;;;;5055426;28;20166;-44
2023/07/15 09:29:33;;;;;;;23.73;22.40;;;24.80;99.90;;;;;;5058280;28;20170;-45
2023/07/15 09:32:00;;;;;;;23.57;22.30;;;24.80;99.90;;;;;;5087034;28;20184;-44
2023/07/15 09:34:27;;;;;;;23.57;22.00;;;24.80;99.90;;;;;;5076088;28;20181;-44
2023/07/15 09:36:53;;;;;;;26.60;25.00;;;24.90;99.90;;;;;;5075504;28;20268;-49
2023/07/15 09:39:22;;;;;;;24.00;22.80;;;25.00;99.90;;;;;;5085921;28;20550;-43
2023/07/15 09:42:06;;;;;;;22.07;20.93;;;25.00;99.90;;;;;;5077518;28;20194;-45
2023/07/15 09:44:43;;;;;;;20.05;18.88;;;25.10;99.90;;;;;;5075583;28;20459;-48
2023/07/15 09:47:08;;;;;;;16.97;15.80;;;25.20;99.90;;;;;;5072852;28;20662;-44
2023/07/15 09:49:38;;;;;;;20.03;18.83;;;25.40;99.90;;;;;;5074940;28;20267;-45
2023/07/15 09:52:05;;;;;;;17.55;16.35;;;25.50;99.90;;;;;;5093506;28;20183;-44
2023/07/15 09:54:34;;;;;;;23.07;21.60;;;25.40;99.90;;;;;;5091783;28;20168;-44
2023/07/15 09:57:15;;;;;;;18.80;17.70;;;25.50;99.90;;;;;;5073674;28;20333;-44
2023/07/15 09:59:51;;;;;;;15.53;14.50;;;25.80;99.90;;;;;;5075359;28;20318;-47
2023/07/15 10:02:40;;;;;;;13.23;12.32;;;26.00;99.90;;;;;;5092940;28;20214;-44
2023/07/15 10:05:12;;;;;;;19.80;18.70;;;25.90;99.90;;;;;;5073533;28;20175;-44
2023/07/15 10:07:42;;;;;;;13.80;12.90;;;26.00;99.90;;;;;;5072994;28;20249;-44
2023/07/15 10:10:10;;;;;;;14.90;13.77;;;26.00;99.90;;;;;;5073739;28;20183;-45
2023/07/15 10:12:38;;;;;;;21.38;20.00;;;25.90;99.90;;;;;;5074165;28;20446;-44
2023/07/15 10:15:04;;;;;;;11.75;10.95;;;26.00;99.90;;;;;;5073627;28;20277;-46
2023/07/15 10:17:37;;;;;;;11.10;10.10;;;26.30;99.90;;;;;;5075232;28;20263;-44
2023/07/15 10:20:15;;;;;;;22.80;21.25;;;26.30;99.90;;;;;;5093387;28;20296;-46
2023/07/15 10:22:42;;;;;;;19.42;18.20;;;26.30;99.90;;;;;;5091071;28;20187;-43
2023/07/15 10:25:10;;;;;;;12.57;11.70;;;26.40;99.90;;;;;;5065591;28;20556;-44
2023/07/15 10:27:37;;;;;;;19.75;18.55;;;26.40;99.90;;;;;;5055971;28;20173;-44
2023/07/15 10:30:23;;;;;;;13.43;12.57;;;26.60;99.90;;;;;;5071980;28;20260;-47
2023/07/15 10:33:01;;;;;;;22.75;21.00;;;26.60;99.90;;;;;;5056620;28;20275;-48
2023/07/15 10:35:34;;;;;;;19.25;18.13;;;26.60;99.90;;;;;;5056926;28;20288;-46
2023/07/15 10:38:23;;;;;;;24.73;23.08;;;26.50;99.90;;;;;;5073706;28;20169;-46
2023/07/15 10:41:03;;;;;;;53.50;50.40;;;26.60;99.90;;;;;;5075645;28;20192;-45
2023/07/15 10:43:37;;;;;;;73.13;68.78;;;26.80;99.90;;;;;;5056668;28;20168;-44
2023/07/15 10:46:13;;;;;;;76.25;72.05;;;27.10;99.90;;;;;;5072975;28;20176;-44
2023/07/15 10:48:39;;;;;;;52.25;49.40;;;27.40;99.90;;;;;;5056211;28;20693;-45
2023/07/15 10:51:07;;;;;;;63.58;60.38;;;27.70;99.90;;;;;;5064950;28;20180;-43
2023/07/15 10:53:34;;;;;;;72.82;68.78;;;27.80;99.90;;;;;;5060729;28;20192;-44
2023/07/15 10:56:09;;;;;;;45.63;43.25;;;28.00;99.90;;;;;;5094582;28;20163;-45
2023/07/15 10:58:36;;;;;;;41.25;38.88;;;28.20;99.90;;;;;;5090522;28;20195;-43
2023/07/15 11:01:05;;;;;;;40.33;38.22;;;28.50;99.90;;;;;;5077106;28;20204;-44
2023/07/15 11:03:32;;;;;;;53.75;51.00;;;28.60;99.90;;;;;;5094438;28;20184;-46
2023/07/15 11:05:58;;;;;;;37.28;35.35;;;28.60;99.90;;;;;;5076907;28;20179;-49
2023/07/15 11:08:25;;;;;;;49.38;46.60;;;28.70;99.90;;;;;;5077461;28;20267;-44
2023/07/15 11:11:07;;;;;;;41.65;39.45;;;28.80;99.90;;;;;;5068833;28;20187;-43
2023/07/15 11:13:41;;;;;;;41.35;39.05;;;28.90;99.90;;;;;;5072070;28;20184;-46
2023/07/15 11:16:07;;;;;;;39.47;37.50;;;29.00;99.90;;;;;;5068866;28;20283;-45
2023/07/15 11:18:32;;;;;;;33.67;31.75;;;29.00;99.90;;;;;;5074075;28;20244;-46
2023/07/15 11:21:00;;;;;;;36.40;34.60;;;29.10;99.90;;;;;;5087810;28;20608;-44
2023/07/15 11:23:31;;;;;;;38.67;36.47;;;29.10;99.90;;;;;;5056292;28;20169;-44
2023/07/15 11:25:58;;;;;;;41.90;39.80;;;29.00;99.90;;;;;;5091797;28;20819;-51
2023/07/15 11:28:24;;;;;;;36.05;34.25;;;29.00;99.90;;;;;;5075339;28;20161;-45
2023/07/15 11:30:50;;;;;;;39.17;37.28;;;29.00;99.90;;;;;;5072313;28;20315;-44
2023/07/15 11:33:17;;;;;;;37.85;35.83;;;29.00;99.90;;;;;;5049131;28;20206;-46
2023/07/15 11:35:45;;;;;;;34.70;32.67;;;29.00;99.90;;;;;;5057509;28;20181;-44
2023/07/15 11:38:12;;;;;;;39.83;37.83;;;29.20;99.90;;;;;;5074545;28;20173;-46
2023/07/15 11:40:51;;;;;;;37.03;35.03;;;29.30;99.90;;;;;;5074746;28;20228;-44
2023/07/15 11:43:18;;;;;;;39.38;37.38;;;29.40;99.90;;;;;;5075418;28;20161;-46
2023/07/15 11:45:44;;;;;;;34.05;32.08;;;29.50;99.90;;;;;;5058375;28;20184;-46
2023/07/15 11:48:10;;;;;;;35.83;34.05;;;29.60;99.90;;;;;;5073886;28;20169;-44
2023/07/15 11:50:36;;;;;;;32.00;30.02;;;29.70;99.90;;;;;;5057294;28;20165;-44
2023/07/15 11:53:02;;;;;;;31.45;29.83;;;29.80;99.90;;;;;;5057400;28;20187;-45
2023/07/15 11:55:29;;;;;;;31.58;29.77;;;29.70;99.90;;;;;;5057452;28;20180;-47
2023/07/15 11:57:55;;;;;;;30.55;28.88;;;29.50;99.90;;;;;;5057014;28;20164;-44
2023/07/15 12:00:33;;;;;;;34.15;32.10;;;29.30;99.90;;;;;;5058743;28;20208;-46
2023/07/15 12:03:05;;;;;;;28.73;27.20;;;29.20;99.90;;;;;;5060535;28;20164;-46
2023/07/15 12:05:31;;;;;;;26.42;24.92;;;29.00;99.90;;;;;;5076442;28;20260;-46
2023/07/15 12:07:57;;;;;;;24.20;22.80;;;29.00;99.90;;;;;;5058825;28;20277;-46
2023/07/15 12:10:22;;;;;;;23.20;21.70;;;28.90;99.90;;;;;;5076309;28;20169;-44
2023/07/15 12:12:48;;;;;;;23.63;22.38;;;28.90;99.90;;;;;;5058086;28;20173;-49
2023/07/15 12:15:17;;;;;;;33.28;31.02;;;28.90;99.90;;;;;;5056375;28;20173;-45
2023/07/15 12:17:43;;;;;;;33.88;32.00;;;28.90;99.90;;;;;;5073476;28;20828;-44
2023/07/15 12:20:11;;;;;;;26.05;24.63;;;29.10;99.90;;;;;;5055724;28;20872;-45
2023/07/15 12:22:39;;;;;;;27.35;25.75;;;29.30;99.90;;;;;;5056432;28;20168;-45
2023/07/15 12:25:05;;;;;;;22.38;21.17;;;29.40;99.90;;;;;;5055913;28;20173;-45
2023/07/15 12:27:32;;;;;;;29.00;27.20;;;29.40;99.90;;;;;;5056713;28;20164;-45
2023/07/15 12:29:58;;;;;;;20.88;19.50;;;29.40;99.90;;;;;;5063892;28;20216;-46
2023/07/15 12:32:25;;;;;;;30.88;29.27;;;29.40;99.90;;;;;;5078142;28;20533;-46
2023/07/15 12:34:50;;;;;;;31.63;29.95;;;29.40;99.90;;;;;;5078826;28;20572;-45
2023/07/15 12:37:16;;;;;;;27.02;25.67;;;29.30;99.90;;;;;;5078744;28;20249;-47
2023/07/15 12:39:42;;;;;;;34.25;32.35;;;29.20;99.90;;;;;;5078266;28;20192;-44
2023/07/15 12:42:07;;;;;;;20.23;19.15;;;29.20;99.90;;;;;;5078322;28;20416;-44
2023/07/15 12:44:33;;;;;;;27.90;26.30;;;29.10;99.90;;;;;;5095906;28;20268;-45